createdAt,value
2022-11-18T00:01:09.380Z,8.77
2022-11-18T00:03:37.503Z,9.53
2022-11-18T00:06:05.961Z,9.37
2022-11-18T00:08:32.955Z,7.00
2022-11-18T00:11:05.993Z,7.30
2022-11-18T00:13:51.524Z,8.80
2022-11-18T00:16:18.483Z,8.13
2022-11-18T00:18:45.347Z,8.50
2022-11-18T00:21:12.794Z,7.80
2022-11-18T00:23:40.269Z,7.23
2022-11-18T00:26:10.185Z,11.07
2022-11-18T00:28:37.163Z,7.93
2022-11-18T00:31:12.412Z,8.77
2022-11-18T00:33:39.683Z,9.70
2022-11-18T00:36:09.565Z,10.87
2022-11-18T00:38:36.457Z,7.17
2022-11-18T00:41:05.977Z,8.43
2022-11-18T00:43:34.063Z,9.73
2022-11-18T00:46:01.703Z,8.60
2022-11-18T00:48:29.034Z,8.87
2022-11-18T00:50:58.953Z,7.20
2022-11-18T00:53:27.222Z,9.17
2022-11-18T00:55:54.508Z,10.83
2022-11-18T00:58:21.699Z,8.07
2022-11-18T01:00:51.775Z,8.73
2022-11-18T01:03:20.137Z,8.20
2022-11-18T01:05:47.419Z,7.90
2022-11-18T01:08:15.010Z,8.20
2022-11-18T01:10:42.113Z,8.03
2022-11-18T01:13:20.244Z,7.83
2022-11-18T01:15:53.376Z,6.87
2022-11-18T01:18:23.489Z,8.10
2022-11-18T01:20:50.481Z,10.13
2022-11-18T01:23:19.252Z,8.87
2022-11-18T01:25:48.987Z,9.47
2022-11-18T01:28:23.368Z,10.30
2022-11-18T01:30:51.047Z,8.53
2022-11-18T01:33:18.014Z,7.13
2022-11-18T01:35:45.427Z,8.27
2022-11-18T01:38:14.039Z,11.83
2022-11-18T01:40:41.706Z,8.10
2022-11-18T01:43:18.213Z,8.37
2022-11-18T01:45:47.407Z,6.55
2022-11-18T01:48:17.275Z,7.57
2022-11-18T01:50:51.311Z,10.27
2022-11-18T01:53:31.297Z,7.87
2022-11-18T01:56:03.139Z,6.73
2022-11-18T01:58:36.879Z,9.63
2022-11-18T02:01:05.628Z,6.20
2022-11-18T02:03:33.442Z,8.90
2022-11-18T02:06:02.541Z,7.77
2022-11-18T02:08:30.837Z,8.37
2022-11-18T02:10:57.729Z,7.07
2022-11-18T02:13:25.366Z,10.93
2022-11-18T02:16:21.802Z,7.67
2022-11-18T02:18:56.204Z,7.87
2022-11-18T02:21:38.007Z,9.30
2022-11-18T02:24:23.611Z,7.40
2022-11-18T02:27:27.530Z,7.23
2022-11-18T02:30:10.279Z,7.10
2022-11-18T02:32:49.087Z,7.83
2022-11-18T02:35:18.628Z,8.10
2022-11-18T02:37:56.866Z,10.47
2022-11-18T02:40:28.210Z,6.70
2022-11-18T02:43:18.553Z,7.73
2022-11-18T02:45:51.210Z,8.13
2022-11-18T02:48:20.366Z,9.47
2022-11-18T02:50:50.526Z,8.70
2022-11-18T02:53:20.968Z,8.43
2022-11-18T02:55:49.824Z,6.07
2022-11-18T02:58:19.015Z,8.60
2022-11-18T03:00:53.816Z,7.33
2022-11-18T03:03:29.818Z,7.27
2022-11-18T03:06:05.879Z,7.63
2022-11-18T03:08:48.853Z,7.43
2022-11-18T03:11:24.056Z,7.60
2022-11-18T03:14:15.897Z,7.37
2022-11-18T03:16:51.554Z,7.03
2022-11-18T03:19:44.230Z,8.20
2022-11-18T03:22:23.666Z,10.23
2022-11-18T03:25:00.932Z,6.30
2022-11-18T03:27:37.196Z,7.03
2022-11-18T03:30:12.872Z,8.33
2022-11-18T03:32:44.708Z,7.40
2022-11-18T03:35:22.336Z,9.97
2022-11-18T03:37:52.740Z,8.33
2022-11-18T03:40:24.979Z,6.30
2022-11-18T03:42:57.183Z,7.27
2022-11-18T03:45:29.310Z,7.60
2022-11-18T03:48:05.381Z,7.67
2022-11-18T03:50:36.344Z,9.75
2022-11-18T03:53:03.755Z,8.30
2022-11-18T03:55:37.720Z,7.17
2022-11-18T03:58:19.867Z,7.63
2022-11-18T04:00:50.483Z,8.83
2022-11-18T04:03:17.614Z,6.20
2022-11-18T04:05:44.918Z,7.67
2022-11-18T04:08:19.262Z,6.93
2022-11-18T04:10:55.410Z,6.47
2022-11-18T04:13:27.249Z,8.75
2022-11-18T04:15:55.606Z,9.87
2022-11-18T04:18:22.969Z,7.60
2022-11-18T04:20:49.922Z,8.13
2022-11-18T04:23:16.882Z,7.43
2022-11-18T04:25:43.819Z,7.43
2022-11-18T04:28:10.778Z,7.20
2022-11-18T04:30:37.716Z,6.37
2022-11-18T04:33:05.308Z,7.17
2022-11-18T04:35:32.261Z,6.97
2022-11-18T04:37:59.203Z,8.83
2022-11-18T04:40:26.268Z,6.73
2022-11-18T04:42:53.189Z,7.30
2022-11-18T04:45:20.114Z,6.87
2022-11-18T04:47:47.012Z,6.90
2022-11-18T04:50:13.995Z,6.87
2022-11-18T04:52:40.984Z,6.77
2022-11-18T04:55:08.310Z,6.47
2022-11-18T04:57:35.238Z,6.97
2022-11-18T05:00:02.106Z,6.63
2022-11-18T05:02:31.301Z,6.83
2022-11-18T05:04:58.313Z,6.50
2022-11-18T05:07:25.305Z,6.63
2022-11-18T05:09:52.210Z,9.30
2022-11-18T05:12:37.604Z,6.60
2022-11-18T05:15:04.874Z,8.33
2022-11-18T05:17:31.904Z,9.77
2022-11-18T05:19:58.945Z,8.50
2022-11-18T05:22:25.855Z,7.03
2022-11-18T05:24:52.752Z,10.43
2022-11-18T05:27:19.698Z,6.87
2022-11-18T05:29:46.678Z,7.80
2022-11-18T05:32:13.858Z,9.53
2022-11-18T05:34:42.209Z,7.67
2022-11-18T05:37:09.657Z,6.13
2022-11-18T05:39:36.772Z,6.60
2022-11-18T05:42:22.614Z,6.37
2022-11-18T05:44:57.416Z,6.87
2022-11-18T05:47:25.435Z,6.87
2022-11-18T05:49:52.336Z,6.47
2022-11-18T05:52:19.272Z,6.87
2022-11-18T05:54:50.311Z,6.43
2022-11-18T05:57:17.313Z,6.77
2022-11-18T05:59:44.248Z,7.23
2022-11-18T06:02:17.000Z,9.03
2022-11-18T06:04:49.345Z,7.53
2022-11-18T06:07:25.527Z,7.90
2022-11-18T06:09:58.748Z,7.80
2022-11-18T06:12:36.029Z,7.47
2022-11-18T06:15:18.501Z,9.93
2022-11-18T06:17:51.368Z,8.83
2022-11-18T06:20:21.031Z,7.67
2022-11-18T06:22:50.278Z,8.30
2022-11-18T06:25:17.727Z,7.13
2022-11-18T06:27:46.397Z,7.23
2022-11-18T06:30:14.128Z,6.30
2022-11-18T06:32:41.090Z,11.17
2022-11-18T06:35:08.721Z,7.37
2022-11-18T06:37:35.679Z,7.10
2022-11-18T06:40:03.125Z,8.33
2022-11-18T06:42:49.623Z,6.67
2022-11-18T06:45:16.922Z,7.83
2022-11-18T06:47:44.016Z,7.47
2022-11-18T06:50:11.190Z,6.80
2022-11-18T06:52:38.136Z,11.13
2022-11-18T06:55:08.449Z,8.90
2022-11-18T06:57:35.860Z,7.43
2022-11-18T07:00:03.182Z,7.47
2022-11-18T07:02:32.173Z,7.63
2022-11-18T07:04:59.126Z,8.23
2022-11-18T07:07:26.298Z,8.90
2022-11-18T07:09:53.279Z,9.30
2022-11-18T07:12:20.199Z,7.10
2022-11-18T07:14:47.205Z,8.53
2022-11-18T07:17:14.188Z,8.63
2022-11-18T07:19:41.147Z,9.10
2022-11-18T07:22:10.723Z,8.20
2022-11-18T07:24:38.120Z,8.23
2022-11-18T07:27:05.075Z,9.20
2022-11-18T07:29:32.046Z,7.80
2022-11-18T07:31:59.018Z,8.13
2022-11-18T07:34:26.026Z,8.07
2022-11-18T07:36:53.059Z,10.60
2022-11-18T07:39:20.339Z,13.27
2022-11-18T07:41:47.508Z,9.53
2022-11-18T07:44:14.743Z,7.03
2022-11-18T07:46:41.680Z,11.33
2022-11-18T07:49:09.349Z,7.93
2022-11-18T07:51:38.714Z,7.03
2022-11-18T07:54:10.530Z,7.73
2022-11-18T07:56:38.040Z,8.50
2022-11-18T07:59:05.893Z,8.73
2022-11-18T08:01:32.922Z,7.50
2022-11-18T08:04:08.734Z,8.60
2022-11-18T08:06:36.077Z,7.57
2022-11-18T08:09:04.604Z,9.50
2022-11-18T08:11:31.918Z,11.10
2022-11-18T08:13:58.904Z,10.57
2022-11-18T08:16:26.843Z,9.13
2022-11-18T08:18:54.602Z,8.97
2022-11-18T08:21:23.116Z,10.77
2022-11-18T08:23:55.151Z,8.27
2022-11-18T08:26:22.201Z,7.70
2022-11-18T08:28:49.953Z,7.17
2022-11-18T08:31:19.678Z,10.20
2022-11-18T08:33:47.577Z,10.30
2022-11-18T08:36:21.233Z,7.33
2022-11-18T08:38:48.758Z,8.03
2022-11-18T08:41:25.769Z,10.60
2022-11-18T08:43:52.660Z,9.23
2022-11-18T08:46:20.121Z,9.47
2022-11-18T08:48:47.113Z,7.67
2022-11-18T08:51:14.528Z,8.60
2022-11-18T08:53:41.898Z,9.33
2022-11-18T08:56:15.548Z,10.13
2022-11-18T08:58:43.615Z,10.87
2022-11-18T09:01:11.389Z,8.53
2022-11-18T09:03:38.530Z,8.43
2022-11-18T09:06:17.337Z,8.97
2022-11-18T09:08:44.882Z,12.17
2022-11-18T09:11:13.762Z,10.80
2022-11-18T09:14:04.272Z,8.20
2022-11-18T09:16:30.845Z,8.68
2022-11-18T09:19:02.082Z,7.97
2022-11-18T09:21:41.084Z,8.80
2022-11-18T09:24:08.928Z,13.73
2022-11-18T09:26:35.842Z,8.60
2022-11-18T09:29:02.897Z,7.47
2022-11-18T09:31:30.091Z,12.03
2022-11-18T09:34:00.507Z,8.07
2022-11-18T09:36:27.888Z,7.53
2022-11-18T09:38:54.885Z,8.60
2022-11-18T09:41:40.106Z,8.97
2022-11-18T09:44:37.624Z,8.83
2022-11-18T09:47:07.461Z,9.35
2022-11-18T09:49:37.576Z,8.83
2022-11-18T09:52:10.623Z,9.23
2022-11-18T09:54:39.222Z,8.10
2022-11-18T09:57:24.485Z,10.77
2022-11-18T09:59:52.559Z,10.50
2022-11-18T10:02:38.043Z,10.47
2022-11-18T10:05:19.394Z,11.13
2022-11-18T10:07:54.931Z,8.00
2022-11-18T10:10:29.888Z,9.10
2022-11-18T10:13:03.876Z,9.87
2022-11-18T10:15:31.074Z,8.83
2022-11-18T10:18:45.085Z,8.63
2022-11-18T10:21:24.171Z,8.68
2022-11-18T10:23:51.022Z,8.03
2022-11-18T10:26:36.296Z,8.33
2022-11-18T10:29:04.243Z,9.57
2022-11-18T10:31:31.234Z,8.40
2022-11-18T10:34:02.336Z,8.50
2022-11-18T10:36:32.422Z,8.77
2022-11-18T10:39:07.471Z,9.87
2022-11-18T10:41:50.156Z,13.63
2022-11-18T10:44:40.946Z,10.40
2022-11-18T10:47:23.399Z,9.97
2022-11-18T10:49:52.041Z,9.70
2022-11-18T10:52:19.363Z,11.13
2022-11-18T10:55:04.903Z,10.87
2022-11-18T10:57:37.082Z,12.00
2022-11-18T11:00:04.769Z,11.90
2022-11-18T11:02:34.831Z,8.27
2022-11-18T11:05:05.333Z,8.87
2022-11-18T11:07:35.263Z,9.53
2022-11-18T11:10:05.267Z,9.97
2022-11-18T11:12:47.365Z,10.57
2022-11-18T11:15:21.015Z,9.70
2022-11-18T11:18:19.509Z,12.93
2022-11-18T11:20:46.501Z,12.33
2022-11-18T11:23:22.117Z,10.77
2022-11-18T11:29:57.894Z,11.13
2022-11-18T11:32:41.793Z,11.93
2022-11-18T11:35:25.368Z,16.60
2022-11-18T11:37:55.243Z,13.20
2022-11-18T11:40:35.080Z,12.87
2022-11-18T11:43:17.279Z,12.77
2022-11-18T11:46:05.789Z,11.27
2022-11-18T11:48:51.033Z,10.87
2022-11-18T11:51:27.009Z,11.20
2022-11-18T11:54:21.116Z,10.90
2022-11-18T11:56:54.087Z,12.33
2022-11-18T11:59:36.206Z,14.83
2022-11-18T12:03:05.124Z,11.33
2022-11-18T12:05:43.277Z,11.35
2022-11-18T12:08:15.144Z,10.30
2022-11-18T12:10:45.020Z,12.67
2022-11-18T12:13:21.197Z,10.90
2022-11-18T12:16:14.737Z,13.43
2022-11-18T12:19:15.815Z,15.40
2022-11-18T12:21:44.101Z,14.93
2022-11-18T12:24:24.574Z,17.17
2022-11-18T12:26:52.000Z,19.07
2022-11-18T12:29:25.771Z,15.63
2022-11-18T12:31:56.275Z,13.70
2022-11-18T12:34:26.175Z,14.77
2022-11-18T12:36:54.266Z,13.73
2022-11-18T12:39:24.067Z,12.70
2022-11-18T12:42:09.663Z,13.20
2022-11-18T12:44:39.313Z,13.20
2022-11-18T12:47:16.919Z,16.10
2022-11-18T12:49:44.318Z,13.87
2022-11-18T12:52:31.516Z,11.80
2022-11-18T12:55:01.349Z,10.90
2022-11-18T12:57:33.984Z,10.90
2022-11-18T13:00:22.898Z,9.93
2022-11-18T13:02:57.929Z,10.27
2022-11-18T13:05:31.011Z,10.83
2022-11-18T13:08:13.786Z,10.53
2022-11-18T13:10:43.915Z,12.67
2022-11-18T13:13:30.864Z,10.33
2022-11-18T13:16:24.036Z,10.23
2022-11-18T13:18:52.803Z,12.13
2022-11-18T13:21:48.708Z,16.87
2022-11-18T13:24:18.471Z,14.63
2022-11-18T13:26:46.653Z,20.27
2022-11-18T13:29:28.600Z,15.40
2022-11-18T13:32:16.784Z,15.87
2022-11-18T13:34:49.819Z,15.47
2022-11-18T13:37:28.316Z,13.93
2022-11-18T13:39:55.737Z,13.17
2022-11-18T13:42:27.737Z,14.63
2022-11-18T13:44:58.898Z,13.23
2022-11-18T13:47:28.465Z,10.03
2022-11-18T13:50:23.111Z,9.60
2022-11-18T13:53:21.901Z,9.00
2022-11-18T13:56:04.561Z,8.70
2022-11-18T14:01:38.109Z,10.03
2022-11-18T14:04:15.231Z,9.47
2022-11-18T14:06:42.486Z,13.13
2022-11-18T14:09:16.769Z,10.97
2022-11-18T14:11:58.262Z,11.43
2022-11-18T14:14:40.113Z,10.93
2022-11-18T14:17:18.041Z,9.60
2022-11-18T14:19:45.864Z,9.30
2022-11-18T14:22:19.566Z,9.27
2022-11-18T14:25:00.488Z,10.53
2022-11-18T14:27:42.727Z,9.80
2022-11-18T14:30:34.521Z,10.73
2022-11-18T14:33:19.245Z,10.83
2022-11-18T14:35:54.650Z,14.43
2022-11-18T14:41:43.574Z,14.07
2022-11-18T14:44:13.612Z,12.03
2022-11-18T14:46:43.411Z,12.10
2022-11-18T14:49:18.179Z,13.80
2022-11-18T14:51:46.200Z,18.20
2022-11-18T14:54:17.234Z,14.80
2022-11-18T14:56:49.382Z,14.40
2022-11-18T14:59:18.601Z,11.93
2022-11-18T15:01:46.583Z,17.10
2022-11-18T15:04:15.679Z,12.73
2022-11-18T15:06:42.750Z,11.23
2022-11-18T15:09:09.633Z,12.90
2022-11-18T15:11:36.577Z,13.53
2022-11-18T15:14:04.169Z,11.80
2022-11-18T15:16:34.317Z,12.93
2022-11-18T15:19:03.319Z,15.07
2022-11-18T15:21:30.535Z,13.00
2022-11-18T15:23:57.451Z,14.50
2022-11-18T15:26:27.389Z,11.87
2022-11-18T15:28:56.266Z,11.40
2022-11-18T15:31:24.970Z,9.67
2022-11-18T15:33:52.840Z,14.10
2022-11-18T15:36:27.384Z,13.20
2022-11-18T15:38:55.693Z,12.87
2022-11-18T15:41:26.209Z,14.07
2022-11-18T15:43:55.102Z,9.97
2022-11-18T15:46:23.618Z,11.23
2022-11-18T15:48:58.413Z,13.00
2022-11-18T15:51:28.599Z,9.90
2022-11-18T15:53:55.658Z,11.10
2022-11-18T15:56:30.682Z,13.30
2022-11-18T15:59:00.527Z,14.83
2022-11-18T16:01:36.153Z,14.40
2022-11-18T16:04:04.476Z,13.97
2022-11-18T16:06:31.992Z,13.73
2022-11-18T16:09:00.323Z,15.27
2022-11-18T16:11:47.897Z,12.90
2022-11-18T16:14:17.694Z,12.30
2022-11-18T16:16:46.978Z,13.47
2022-11-18T16:19:16.882Z,16.17
2022-11-18T16:21:47.229Z,14.27
2022-11-18T16:24:26.458Z,13.73
2022-11-18T16:26:53.395Z,12.37
2022-11-18T16:29:20.999Z,13.57
2022-11-18T16:31:54.432Z,11.33
2022-11-18T16:34:24.820Z,10.47
2022-11-18T16:37:01.297Z,11.10
2022-11-18T16:39:29.620Z,9.82
2022-11-18T16:42:06.945Z,11.60
2022-11-18T16:44:35.581Z,9.93
2022-11-18T16:47:03.274Z,8.13
2022-11-18T16:49:31.447Z,8.17
2022-11-18T16:51:58.400Z,10.60
2022-11-18T16:54:27.555Z,10.17
2022-11-18T16:56:57.148Z,10.73
2022-11-18T16:59:27.348Z,9.00
2022-11-18T17:01:56.874Z,9.30
2022-11-18T17:04:25.624Z,9.33
2022-11-18T17:06:53.671Z,10.70
2022-11-18T17:09:23.257Z,9.57
2022-11-18T17:11:52.524Z,8.60
2022-11-18T17:14:22.525Z,9.13
2022-11-18T17:16:50.621Z,8.57
2022-11-18T17:19:20.149Z,8.80
2022-11-18T17:21:47.936Z,9.40
2022-11-18T17:24:18.011Z,8.10
2022-11-18T17:26:45.817Z,8.43
2022-11-18T17:29:13.350Z,10.10
2022-11-18T17:31:41.552Z,9.67
2022-11-18T17:34:13.170Z,8.13
2022-11-18T17:36:40.873Z,8.67
2022-11-18T17:39:10.940Z,11.30
2022-11-18T17:41:57.074Z,11.73
2022-11-18T17:44:24.750Z,9.47
2022-11-18T17:46:51.828Z,9.60
2022-11-18T17:49:21.316Z,9.87
2022-11-18T17:51:48.748Z,8.47
2022-11-18T17:54:16.252Z,11.03
2022-11-18T17:56:43.604Z,11.13
2022-11-18T17:59:11.591Z,10.37
2022-11-18T18:01:38.589Z,11.03
2022-11-18T18:04:05.633Z,9.63
2022-11-18T18:06:32.534Z,11.27
2022-11-18T18:08:59.849Z,12.93
2022-11-18T18:11:27.466Z,10.53
2022-11-18T18:14:13.282Z,9.80
2022-11-18T18:16:51.063Z,11.47
2022-11-18T18:19:20.488Z,10.63
2022-11-18T18:21:47.837Z,11.80
2022-11-18T18:24:17.559Z,8.10
2022-11-18T18:26:44.834Z,10.97
2022-11-18T18:29:12.917Z,10.23
2022-11-18T18:31:39.922Z,10.03
2022-11-18T18:34:06.891Z,9.90
2022-11-18T18:36:33.846Z,10.23
2022-11-18T18:39:02.339Z,8.87
2022-11-18T18:41:29.923Z,9.53
2022-11-18T18:43:57.014Z,9.23
2022-11-18T18:46:29.025Z,12.27
2022-11-18T18:49:06.206Z,13.03
2022-11-18T18:51:42.774Z,10.48
2022-11-18T18:54:16.152Z,8.95
2022-11-18T18:56:43.216Z,9.93
2022-11-18T18:59:10.242Z,10.80
2022-11-18T19:01:38.216Z,9.97
2022-11-18T19:04:07.716Z,10.83
2022-11-18T19:06:59.014Z,10.07
2022-11-18T19:09:25.056Z,11.80
2022-11-18T19:12:12.235Z,13.90
2022-11-18T19:14:39.419Z,13.20
2022-11-18T19:17:11.113Z,14.50
2022-11-18T19:19:59.541Z,12.33
2022-11-18T19:22:30.252Z,14.17
2022-11-18T19:24:57.791Z,12.90
2022-11-18T19:27:25.335Z,10.93
2022-11-18T19:29:52.219Z,9.87
2022-11-18T19:32:19.185Z,9.40
2022-11-18T19:34:46.106Z,9.30
2022-11-18T19:37:13.036Z,8.73
2022-11-18T19:39:39.908Z,8.33
2022-11-18T19:42:07.640Z,9.50
2022-11-18T19:44:34.590Z,8.03
2022-11-18T19:47:01.528Z,8.63
2022-11-18T19:49:28.488Z,10.13
2022-11-18T19:51:55.410Z,10.43
2022-11-18T19:54:22.321Z,9.60
2022-11-18T19:56:49.271Z,9.67
2022-11-18T19:59:16.364Z,8.97
2022-11-18T20:01:43.656Z,10.30
2022-11-18T20:04:10.624Z,8.03
2022-11-18T20:06:37.914Z,7.27
2022-11-18T20:09:09.569Z,10.97
2022-11-18T20:11:36.570Z,8.90
2022-11-18T20:14:03.769Z,10.47
2022-11-18T20:16:30.804Z,8.97
2022-11-18T20:19:00.275Z,9.37
2022-11-18T20:21:29.217Z,8.80
2022-11-18T20:24:01.574Z,11.83
2022-11-18T20:26:34.836Z,10.83
2022-11-18T20:29:02.073Z,9.60
2022-11-18T20:31:29.538Z,8.77
2022-11-18T20:33:57.462Z,11.93
2022-11-18T20:36:27.471Z,8.80
2022-11-18T20:38:56.964Z,11.27
2022-11-18T20:41:25.130Z,11.47
2022-11-18T20:43:52.599Z,9.43
2022-11-18T20:46:21.758Z,10.20
2022-11-18T20:48:49.917Z,11.07
2022-11-18T20:51:23.543Z,11.33
2022-11-18T20:53:51.448Z,10.70
2022-11-18T20:56:24.242Z,11.83
2022-11-18T20:58:51.873Z,9.80
2022-11-18T21:01:24.654Z,9.80
2022-11-18T21:03:57.170Z,9.50
2022-11-18T21:06:26.370Z,9.37
2022-11-18T21:09:11.553Z,9.87
2022-11-18T21:11:38.514Z,10.03
2022-11-18T21:14:22.887Z,9.77
2022-11-18T21:16:55.657Z,10.73
2022-11-18T21:19:22.805Z,9.37
2022-11-18T21:21:52.127Z,12.07
2022-11-18T21:24:20.453Z,8.83
2022-11-18T21:26:49.169Z,8.20
2022-11-18T21:29:17.495Z,9.27
2022-11-18T21:31:47.009Z,10.00
2022-11-18T21:34:15.406Z,8.77
2022-11-18T21:36:45.912Z,9.73
2022-11-18T21:39:15.125Z,9.73
2022-11-18T21:41:42.892Z,8.57
2022-11-18T21:44:11.809Z,9.23
2022-11-18T21:46:40.586Z,12.00
2022-11-18T21:49:07.830Z,9.13
2022-11-18T21:51:35.724Z,12.47
2022-11-18T21:54:03.598Z,10.70
2022-11-18T21:56:31.734Z,11.30
2022-11-18T21:59:00.572Z,10.53
2022-11-18T22:01:32.514Z,9.57
2022-11-18T22:04:02.100Z,12.27
2022-11-18T22:06:31.647Z,11.87
2022-11-18T22:08:58.885Z,11.37
2022-11-18T22:11:26.075Z,10.73
2022-11-18T22:13:53.561Z,9.70
2022-11-18T22:16:22.707Z,10.07
2022-11-18T22:18:56.535Z,10.33
2022-11-18T22:21:26.564Z,12.17
2022-11-18T22:23:57.988Z,10.67
2022-11-18T22:26:24.927Z,10.20
2022-11-18T22:28:57.107Z,9.93
2022-11-18T22:31:25.880Z,11.37
2022-11-18T22:33:54.120Z,10.80
2022-11-18T22:36:23.433Z,10.60
2022-11-18T22:38:50.740Z,11.53
2022-11-18T22:41:41.539Z,11.53
2022-11-18T22:44:09.975Z,10.33
2022-11-18T22:46:38.370Z,11.30
2022-11-18T22:49:05.999Z,10.27
2022-11-18T22:51:33.031Z,10.90
2022-11-18T22:54:30.848Z,9.47
2022-11-18T22:56:46.867Z,11.07
2022-11-18T22:59:14.045Z,11.73
2022-11-18T23:01:41.142Z,11.70
2022-11-18T23:04:08.224Z,11.20
2022-11-18T23:06:35.343Z,13.70
2022-11-18T23:09:02.661Z,10.77
2022-11-18T23:11:49.077Z,13.00
2022-11-18T23:14:16.166Z,11.90
2022-11-18T23:16:43.759Z,14.17
2022-11-18T23:19:17.466Z,13.40
2022-11-18T23:21:45.002Z,10.27
2022-11-18T23:24:17.375Z,13.13
2022-11-18T23:26:44.970Z,13.10
2022-11-18T23:29:13.222Z,12.63
2022-11-18T23:31:44.605Z,12.10
2022-11-18T23:34:13.704Z,11.97
2022-11-18T23:36:41.532Z,11.40
2022-11-18T23:39:08.955Z,13.10
2022-11-18T23:41:36.007Z,12.20
2022-11-18T23:44:03.013Z,12.93
2022-11-18T23:46:30.014Z,11.13
2022-11-18T23:48:59.745Z,13.90
2022-11-18T23:51:27.799Z,13.40
2022-11-18T23:53:56.514Z,13.43
2022-11-18T23:56:25.913Z,11.10
2022-11-18T23:58:56.705Z,12.73
